Terminal Aerodrome Forecast
Issued by NWS

Home | Current Version | Previous Version | Text Only | Print | Product List | Glossary On
Versions: 1 2 3 4 5 6 7 8 9 10 11 12 13
000
FTUS42 TJSJ 292300 RRA
TAFJSJ
TAF
TJSJ 292339Z 3000/3024 09005KT P6SM FEW028 SCT060 SCT100
     FM300600 12003KT P6SM VCSH FEW022 SCT040 PROB30 3009/3012 -SHRA
      SCT025 BKN040
     FM301500 07014KT P6SM FEW030 SCT060=

USA.gov is the U.S. government's official web portal to all federal, state and local government web resources and services.